EUS6DC LEMD-LXGB
Flight info
| Callsign | EUS6DC |
|---|---|
| Flight time | 1h 0m |
| Altitude | 37000 |
| Route | VTB N10 INPAN DCT MOCEQ DCT VULPE N864 PIMOS |
| Aircraft | A320/M-SDE3FGHIRWY/LB1 |
Departure
| Time | 2026-05-07 22:22 |
|---|---|
| Airport | Adolfo Suárez Madrid–Barajas Airport (LEMD) |
Arrival
| Time | 2026-05-07 23:23 |
|---|---|
| Airport | Gibraltar Airport (LXGB) |
| Time | Latitude | Longitude | Altitude | Speed | Heading |
|---|---|---|---|---|---|
| 2026-05-07 21:58 | 40.47342 | -3.57058 | 1980 ft | 0 kts | 229° |
| 2026-05-07 22:12 | 40.47345 | -3.57053 | 1981 ft | 4 kts | 227° |
| 2026-05-07 22:12 | 40.47364 | -3.57028 | 1980 ft | 4 kts | 216° |
| 2026-05-07 22:13 | 40.47387 | -3.57011 | 1980 ft | 4 kts | 189° |
| 2026-05-07 22:13 | 40.47407 | -3.57014 | 1980 ft | 1 kts | 142° |
| 2026-05-07 22:13 | 40.47411 | -3.57017 | 1980 ft | 0 kts | 142° |
| 2026-05-07 22:15 | 40.47405 | -3.57011 | 1980 ft | 3 kts | 142° |
| 2026-05-07 22:15 | 40.47375 | -3.56981 | 1979 ft | 8 kts | 142° |
| 2026-05-07 22:16 | 40.47324 | -3.56922 | 1978 ft | 12 kts | 122° |
| 2026-05-07 22:16 | 40.47351 | -3.56826 | 1979 ft | 13 kts | 51° |
| 2026-05-07 22:16 | 40.47427 | -3.56792 | 1979 ft | 13 kts | 329° |
| 2026-05-07 22:16 | 40.47504 | -3.56869 | 1981 ft | 15 kts | 322° |
| 2026-05-07 22:17 | 40.47589 | -3.56957 | 1983 ft | 17 kts | 321° |
| 2026-05-07 22:17 | 40.47685 | -3.57054 | 1988 ft | 18 kts | 323° |
| 2026-05-07 22:17 | 40.47787 | -3.57158 | 1988 ft | 19 kts | 323° |
| 2026-05-07 22:17 | 40.47898 | -3.57270 | 1991 ft | 20 kts | 322° |
| 2026-05-07 22:18 | 40.48010 | -3.57382 | 1994 ft | 20 kts | 321° |
| 2026-05-07 22:18 | 40.48234 | -3.57613 | 2001 ft | 21 kts | 322° |
| 2026-05-07 22:18 | 40.48349 | -3.57728 | 2002 ft | 20 kts | 322° |
| 2026-05-07 22:19 | 40.48466 | -3.57833 | 2003 ft | 21 kts | 331° |
| 2026-05-07 22:19 | 40.48599 | -3.57922 | 2001 ft | 22 kts | 341° |
| 2026-05-07 22:19 | 40.48750 | -3.57933 | 1998 ft | 15 kts | 360° |
| 2026-05-07 22:19 | 40.48832 | -3.57930 | 1996 ft | 12 kts | 14° |
| 2026-05-07 22:20 | 40.48861 | -3.57840 | 1996 ft | 12 kts | 88° |
| 2026-05-07 22:20 | 40.48881 | -3.57735 | 1995 ft | 13 kts | 39° |
| 2026-05-07 22:20 | 40.48978 | -3.57728 | 1993 ft | 15 kts | 0° |
| 2026-05-07 22:20 | 40.49092 | -3.57728 | 1994 ft | 18 kts | 0° |
| 2026-05-07 22:21 | 40.49175 | -3.57659 | 1994 ft | 16 kts | 84° |
| 2026-05-07 22:21 | 40.49196 | -3.57567 | 1995 ft | 8 kts | 63° |
| 2026-05-07 22:21 | 40.49225 | -3.57491 | 1995 ft | 12 kts | 63° |
| 2026-05-07 22:21 | 40.49300 | -3.57462 | 1995 ft | 15 kts | 2° |
| 2026-05-07 22:22 | 40.49625 | -3.57462 | 1995 ft | 87 kts | 360° |
| 2026-05-07 22:22 | 40.50460 | -3.57468 | 1997 ft | 152 kts | 360° |
| 2026-05-07 22:22 | 40.51647 | -3.57475 | 2412 ft | 173 kts | 360° |
| 2026-05-07 22:22 | 40.52841 | -3.57488 | 3372 ft | 171 kts | 1° |
| 2026-05-07 22:23 | 40.54058 | -3.57505 | 4022 ft | 184 kts | 1° |
| 2026-05-07 22:23 | 40.55416 | -3.57514 | 4385 ft | 207 kts | 1° |
| 2026-05-07 22:23 | 40.56945 | -3.57517 | 4791 ft | 232 kts | 1° |
| 2026-05-07 22:23 | 40.58611 | -3.57519 | 5506 ft | 243 kts | 1° |
| 2026-05-07 22:24 | 40.60300 | -3.57285 | 6405 ft | 247 kts | 18° |
| 2026-05-07 22:24 | 40.61890 | -3.56397 | 7286 ft | 250 kts | 26° |
| 2026-05-07 22:24 | 40.63502 | -3.55492 | 8127 ft | 258 kts | 15° |
| 2026-05-07 22:24 | 40.65363 | -3.55491 | 8577 ft | 283 kts | 347° |
| 2026-05-07 22:25 | 40.67336 | -3.55993 | 9339 ft | 293 kts | 353° |
| 2026-05-07 22:25 | 40.69391 | -3.56131 | 10208 ft | 301 kts | 359° |
| 2026-05-07 22:25 | 40.71571 | -3.56086 | 10598 ft | 325 kts | 1° |
| 2026-05-07 22:25 | 40.73863 | -3.56255 | 11238 ft | 335 kts | 346° |
| 2026-05-07 22:26 | 40.75996 | -3.57486 | 12049 ft | 338 kts | 322° |
| 2026-05-07 22:26 | 40.77586 | -3.59750 | 12895 ft | 339 kts | 299° |
| 2026-05-07 22:26 | 40.78215 | -3.61622 | 13462 ft | 339 kts | 284° |
| 2026-05-07 22:26 | 40.78350 | -3.65736 | 14501 ft | 339 kts | 257° |
| 2026-05-07 22:27 | 40.78008 | -3.67750 | 15012 ft | 340 kts | 256° |
| 2026-05-07 22:27 | 40.77470 | -3.70801 | 15782 ft | 343 kts | 256° |
| 2026-05-07 22:27 | 40.76925 | -3.73877 | 16546 ft | 345 kts | 255° |
| 2026-05-07 22:27 | 40.75997 | -3.76794 | 17282 ft | 348 kts | 236° |
| 2026-05-07 22:28 | 40.74339 | -3.79113 | 18009 ft | 352 kts | 216° |
| 2026-05-07 22:28 | 40.72122 | -3.80498 | 18666 ft | 358 kts | 195° |
| 2026-05-07 22:28 | 40.69629 | -3.80743 | 19277 ft | 365 kts | 175° |
| 2026-05-07 22:28 | 40.67131 | -3.79962 | 19883 ft | 372 kts | 166° |
| 2026-05-07 22:29 | 40.64634 | -3.79011 | 20493 ft | 376 kts | 166° |
| 2026-05-07 22:29 | 40.62127 | -3.77962 | 21073 ft | 382 kts | 161° |
| 2026-05-07 22:29 | 40.59746 | -3.76332 | 21641 ft | 390 kts | 149° |
| 2026-05-07 22:29 | 40.57612 | -3.74076 | 22197 ft | 398 kts | 137° |
| 2026-05-07 22:30 | 40.55806 | -3.71273 | 22727 ft | 406 kts | 129° |
| 2026-05-07 22:30 | 40.54103 | -3.68292 | 23267 ft | 410 kts | 129° |
| 2026-05-07 22:30 | 40.52380 | -3.65279 | 23762 ft | 415 kts | 129° |
| 2026-05-07 22:30 | 40.50623 | -3.62248 | 24204 ft | 418 kts | 132° |
| 2026-05-07 22:31 | 40.48587 | -3.59544 | 24650 ft | 417 kts | 144° |
| 2026-05-07 22:31 | 40.46207 | -3.57385 | 25094 ft | 415 kts | 155° |
| 2026-05-07 22:31 | 40.43581 | -3.55843 | 25539 ft | 413 kts | 166° |
| 2026-05-07 22:31 | 40.40805 | -3.54944 | 26000 ft | 410 kts | 176° |
| 2026-05-07 22:32 | 40.37971 | -3.54534 | 26460 ft | 411 kts | 179° |
| 2026-05-07 22:32 | 40.35120 | -3.54149 | 26922 ft | 413 kts | 179° |
| 2026-05-07 22:32 | 40.32253 | -3.53760 | 27376 ft | 416 kts | 179° |
| 2026-05-07 22:32 | 40.29367 | -3.53367 | 27821 ft | 418 kts | 179° |
| 2026-05-07 22:33 | 40.26465 | -3.52968 | 28269 ft | 420 kts | 179° |
| 2026-05-07 22:33 | 40.23548 | -3.52567 | 28709 ft | 423 kts | 179° |
| 2026-05-07 22:33 | 40.20611 | -3.52166 | 29139 ft | 426 kts | 179° |
| 2026-05-07 22:33 | 40.17656 | -3.51764 | 29568 ft | 428 kts | 179° |
| 2026-05-07 22:34 | 40.14685 | -3.51360 | 29989 ft | 431 kts | 179° |
| 2026-05-07 22:34 | 40.11695 | -3.50950 | 30345 ft | 433 kts | 179° |
| 2026-05-07 22:34 | 40.08692 | -3.50538 | 30689 ft | 435 kts | 179° |
| 2026-05-07 22:34 | 40.05671 | -3.50125 | 31039 ft | 437 kts | 179° |
| 2026-05-07 22:35 | 40.02641 | -3.49710 | 31377 ft | 439 kts | 179° |
| 2026-05-07 22:35 | 39.99603 | -3.49299 | 31716 ft | 440 kts | 179° |
| 2026-05-07 22:35 | 39.96562 | -3.48889 | 32188 ft | 438 kts | 180° |
| 2026-05-07 22:35 | 39.93538 | -3.48483 | 32688 ft | 436 kts | 180° |
| 2026-05-07 22:36 | 39.90528 | -3.48078 | 33171 ft | 434 kts | 180° |
| 2026-05-07 22:36 | 39.87534 | -3.47674 | 33648 ft | 432 kts | 180° |
| 2026-05-07 22:36 | 39.84549 | -3.47271 | 34112 ft | 430 kts | 180° |
| 2026-05-07 22:36 | 39.81575 | -3.46869 | 34512 ft | 429 kts | 180° |
| 2026-05-07 22:37 | 39.78610 | -3.46470 | 34882 ft | 428 kts | 181° |
| 2026-05-07 22:37 | 39.75678 | -3.46483 | 35226 ft | 415 kts | 195° |
| 2026-05-07 22:37 | 39.73003 | -3.47541 | 35545 ft | 403 kts | 211° |
| 2026-05-07 22:37 | 39.70712 | -3.49533 | 35868 ft | 394 kts | 226° |
| 2026-05-07 22:38 | 39.68987 | -3.52244 | 36168 ft | 388 kts | 241° |
| 2026-05-07 22:38 | 39.67927 | -3.55449 | 36464 ft | 387 kts | 255° |
| 2026-05-07 22:38 | 39.67205 | -3.58810 | 36737 ft | 387 kts | 249° |
| 2026-05-07 22:38 | 39.66009 | -3.61934 | 36932 ft | 388 kts | 237° |
| 2026-05-07 22:39 | 39.64272 | -3.64605 | 36970 ft | 388 kts | 229° |
| 2026-05-07 22:39 | 39.60507 | -3.69588 | 36971 ft | 386 kts | 227° |
| 2026-05-07 22:40 | 39.56629 | -3.74403 | 36967 ft | 388 kts | 220° |
| 2026-05-07 22:40 | 39.52008 | -3.78099 | 36970 ft | 391 kts | 214° |
| 2026-05-07 22:41 | 39.47318 | -3.81676 | 36963 ft | 391 kts | 214° |
| 2026-05-07 22:41 | 39.42638 | -3.85254 | 36958 ft | 391 kts | 214° |
| 2026-05-07 22:42 | 39.37951 | -3.88823 | 36961 ft | 391 kts | 214° |
| 2026-05-07 22:42 | 39.33265 | -3.92381 | 36963 ft | 391 kts | 214° |
| 2026-05-07 22:43 | 39.28576 | -3.95924 | 36960 ft | 390 kts | 214° |
| 2026-05-07 22:43 | 39.23892 | -3.99479 | 36956 ft | 390 kts | 214° |
| 2026-05-07 22:44 | 39.19246 | -4.02997 | 36954 ft | 390 kts | 213° |
| 2026-05-07 22:44 | 39.14557 | -4.06531 | 36951 ft | 390 kts | 213° |
| 2026-05-07 22:45 | 39.09869 | -4.10055 | 36952 ft | 390 kts | 213° |
| 2026-05-07 22:45 | 39.05167 | -4.13590 | 37155 ft | 393 kts | 213° |
| 2026-05-07 22:45 | 39.02805 | -4.15363 | 37435 ft | 393 kts | 213° |
| 2026-05-07 22:46 | 39.00438 | -4.17137 | 37714 ft | 393 kts | 213° |
| 2026-05-07 22:46 | 38.98075 | -4.18909 | 37919 ft | 394 kts | 213° |
| 2026-05-07 22:46 | 38.95709 | -4.20683 | 37948 ft | 394 kts | 213° |
| 2026-05-07 22:47 | 38.90975 | -4.24225 | 37948 ft | 393 kts | 213° |
| 2026-05-07 22:47 | 38.86243 | -4.27754 | 37945 ft | 394 kts | 213° |
| 2026-05-07 22:48 | 38.81501 | -4.31288 | 37948 ft | 394 kts | 213° |
| 2026-05-07 22:48 | 38.76758 | -4.34825 | 37948 ft | 395 kts | 213° |
| 2026-05-07 22:49 | 38.72039 | -4.38337 | 37953 ft | 395 kts | 212° |
| 2026-05-07 22:49 | 38.67288 | -4.41866 | 37951 ft | 395 kts | 212° |
| 2026-05-07 22:50 | 38.62534 | -4.45396 | 37959 ft | 395 kts | 212° |
| 2026-05-07 22:50 | 38.57782 | -4.48913 | 37955 ft | 395 kts | 212° |
| 2026-05-07 22:51 | 38.53029 | -4.52418 | 37962 ft | 395 kts | 212° |
| 2026-05-07 22:51 | 38.48274 | -4.55931 | 37958 ft | 395 kts | 212° |
| 2026-05-07 22:52 | 38.43521 | -4.59432 | 37961 ft | 394 kts | 212° |
| 2026-05-07 22:52 | 38.38765 | -4.62925 | 37958 ft | 394 kts | 212° |
| 2026-05-07 22:53 | 38.34010 | -4.66413 | 37957 ft | 394 kts | 212° |
| 2026-05-07 22:53 | 38.28926 | -4.69063 | 37957 ft | 400 kts | 195° |
| 2026-05-07 22:54 | 38.23412 | -4.70209 | 37965 ft | 402 kts | 193° |
| 2026-05-07 22:54 | 38.17893 | -4.71331 | 37955 ft | 402 kts | 193° |
| 2026-05-07 22:55 | 38.12374 | -4.72463 | 37963 ft | 402 kts | 193° |
| 2026-05-07 22:55 | 38.06856 | -4.73593 | 37960 ft | 402 kts | 193° |
| 2026-05-07 22:56 | 38.01337 | -4.74720 | 37965 ft | 402 kts | 193° |
| 2026-05-07 22:56 | 37.95861 | -4.75838 | 37962 ft | 401 kts | 193° |
| 2026-05-07 22:57 | 37.90345 | -4.76959 | 37968 ft | 401 kts | 193° |
| 2026-05-07 22:57 | 37.84831 | -4.78072 | 37961 ft | 401 kts | 193° |
| 2026-05-07 22:58 | 37.79324 | -4.79189 | 37965 ft | 400 kts | 193° |
| 2026-05-07 22:58 | 37.73826 | -4.80305 | 37975 ft | 400 kts | 193° |
| 2026-05-07 22:59 | 37.68332 | -4.81421 | 37856 ft | 400 kts | 193° |
| 2026-05-07 22:59 | 37.65588 | -4.81973 | 37581 ft | 399 kts | 193° |
| 2026-05-07 22:59 | 37.62852 | -4.82523 | 37309 ft | 398 kts | 193° |
| 2026-05-07 22:59 | 37.60118 | -4.83072 | 37051 ft | 397 kts | 193° |
| 2026-05-07 23:00 | 37.57415 | -4.83610 | 36657 ft | 391 kts | 193° |
| 2026-05-07 23:00 | 37.54742 | -4.84143 | 36207 ft | 387 kts | 193° |
| 2026-05-07 23:00 | 37.52096 | -4.84675 | 35735 ft | 383 kts | 193° |
| 2026-05-07 23:00 | 37.49476 | -4.85204 | 35266 ft | 380 kts | 193° |
| 2026-05-07 23:01 | 37.46875 | -4.85728 | 34777 ft | 378 kts | 193° |
| 2026-05-07 23:01 | 37.44318 | -4.86241 | 34292 ft | 375 kts | 193° |
| 2026-05-07 23:01 | 37.41709 | -4.86762 | 33752 ft | 374 kts | 193° |
| 2026-05-07 23:01 | 37.39150 | -4.87273 | 33234 ft | 371 kts | 193° |
| 2026-05-07 23:02 | 37.36599 | -4.87783 | 32709 ft | 373 kts | 193° |
| 2026-05-07 23:02 | 37.34030 | -4.88300 | 32178 ft | 375 kts | 193° |
| 2026-05-07 23:02 | 37.31444 | -4.88824 | 31631 ft | 378 kts | 193° |
| 2026-05-07 23:02 | 37.28836 | -4.89352 | 31075 ft | 381 kts | 193° |
| 2026-05-07 23:03 | 37.26212 | -4.89879 | 30512 ft | 381 kts | 193° |
| 2026-05-07 23:03 | 37.23599 | -4.90399 | 29939 ft | 380 kts | 193° |
| 2026-05-07 23:03 | 37.21033 | -4.90909 | 29371 ft | 377 kts | 193° |
| 2026-05-07 23:03 | 37.18451 | -4.91424 | 28835 ft | 374 kts | 193° |
| 2026-05-07 23:04 | 37.15895 | -4.91934 | 28295 ft | 370 kts | 193° |
| 2026-05-07 23:04 | 37.13364 | -4.92436 | 27773 ft | 367 kts | 193° |
| 2026-05-07 23:04 | 37.10848 | -4.92934 | 27243 ft | 364 kts | 193° |
| 2026-05-07 23:04 | 37.08354 | -4.93429 | 26725 ft | 361 kts | 193° |
| 2026-05-07 23:05 | 37.05874 | -4.93877 | 26183 ft | 361 kts | 189° |
| 2026-05-07 23:05 | 37.03355 | -4.93891 | 25621 ft | 363 kts | 182° |
| 2026-05-07 23:05 | 37.00833 | -4.93754 | 25061 ft | 362 kts | 182° |
| 2026-05-07 23:05 | 36.98321 | -4.93617 | 24504 ft | 360 kts | 182° |
| 2026-05-07 23:06 | 36.95822 | -4.93485 | 23991 ft | 358 kts | 182° |
| 2026-05-07 23:06 | 36.93339 | -4.93354 | 23456 ft | 357 kts | 182° |
| 2026-05-07 23:06 | 36.90865 | -4.93223 | 22914 ft | 354 kts | 182° |
| 2026-05-07 23:06 | 36.88417 | -4.93097 | 22419 ft | 350 kts | 182° |
| 2026-05-07 23:07 | 36.85995 | -4.92974 | 21927 ft | 347 kts | 181° |
| 2026-05-07 23:07 | 36.83589 | -4.92852 | 21443 ft | 345 kts | 181° |
| 2026-05-07 23:07 | 36.81198 | -4.92733 | 20944 ft | 343 kts | 181° |
| 2026-05-07 23:07 | 36.78817 | -4.92613 | 20451 ft | 342 kts | 181° |
| 2026-05-07 23:08 | 36.76444 | -4.92492 | 19935 ft | 342 kts | 181° |
| 2026-05-07 23:08 | 36.74071 | -4.92370 | 19419 ft | 342 kts | 181° |
| 2026-05-07 23:08 | 36.71691 | -4.92249 | 18892 ft | 343 kts | 180° |
| 2026-05-07 23:08 | 36.69310 | -4.92129 | 18359 ft | 343 kts | 180° |
| 2026-05-07 23:09 | 36.66920 | -4.92011 | 17772 ft | 344 kts | 180° |
| 2026-05-07 23:09 | 36.64534 | -4.91889 | 17235 ft | 343 kts | 180° |
| 2026-05-07 23:09 | 36.62157 | -4.91763 | 16711 ft | 342 kts | 180° |
| 2026-05-07 23:09 | 36.59813 | -4.91640 | 16192 ft | 341 kts | 180° |
| 2026-05-07 23:10 | 36.57445 | -4.91518 | 15675 ft | 340 kts | 180° |
| 2026-05-07 23:10 | 36.55081 | -4.91397 | 15155 ft | 339 kts | 180° |
| 2026-05-07 23:10 | 36.52722 | -4.91278 | 14644 ft | 339 kts | 180° |
| 2026-05-07 23:10 | 36.50365 | -4.91158 | 14128 ft | 339 kts | 179° |
| 2026-05-07 23:11 | 36.48012 | -4.91040 | 13592 ft | 338 kts | 179° |
| 2026-05-07 23:11 | 36.45666 | -4.90922 | 13047 ft | 336 kts | 179° |
| 2026-05-07 23:11 | 36.43337 | -4.90803 | 12530 ft | 334 kts | 179° |
| 2026-05-07 23:11 | 36.41023 | -4.90683 | 11999 ft | 332 kts | 179° |
| 2026-05-07 23:12 | 36.38721 | -4.90563 | 11473 ft | 330 kts | 178° |
| 2026-05-07 23:12 | 36.36430 | -4.90442 | 10946 ft | 329 kts | 178° |
| 2026-05-07 23:12 | 36.34151 | -4.90323 | 10426 ft | 327 kts | 178° |
| 2026-05-07 23:12 | 36.31911 | -4.90207 | 10245 ft | 315 kts | 178° |
| 2026-05-07 23:13 | 36.29764 | -4.90096 | 10122 ft | 303 kts | 178° |
| 2026-05-07 23:13 | 36.27709 | -4.89989 | 9947 ft | 290 kts | 178° |
| 2026-05-07 23:13 | 36.25718 | -4.89886 | 9715 ft | 283 kts | 178° |
| 2026-05-07 23:13 | 36.23754 | -4.89787 | 9427 ft | 282 kts | 178° |
| 2026-05-07 23:14 | 36.21802 | -4.89690 | 9032 ft | 280 kts | 178° |
| 2026-05-07 23:14 | 36.19860 | -4.89592 | 8624 ft | 278 kts | 178° |
| 2026-05-07 23:14 | 36.17949 | -4.89493 | 8228 ft | 269 kts | 178° |
| 2026-05-07 23:14 | 36.16120 | -4.89398 | 7850 ft | 257 kts | 178° |
| 2026-05-07 23:15 | 36.14383 | -4.89431 | 7496 ft | 244 kts | 192° |
| 2026-05-07 23:15 | 36.12939 | -4.90388 | 7173 ft | 234 kts | 226° |
| 2026-05-07 23:15 | 36.12198 | -4.92141 | 6855 ft | 233 kts | 259° |
| 2026-05-07 23:15 | 36.12297 | -4.94134 | 6570 ft | 235 kts | 278° |
| 2026-05-07 23:16 | 36.12555 | -4.96131 | 6248 ft | 235 kts | 276° |
| 2026-05-07 23:16 | 36.12774 | -4.98130 | 5890 ft | 234 kts | 276° |
| 2026-05-07 23:16 | 36.12979 | -5.00077 | 5515 ft | 228 kts | 275° |
| 2026-05-07 23:16 | 36.13180 | -5.01998 | 5165 ft | 223 kts | 275° |
| 2026-05-07 23:17 | 36.13378 | -5.03880 | 4817 ft | 219 kts | 276° |
| 2026-05-07 23:17 | 36.13577 | -5.05730 | 4460 ft | 215 kts | 275° |
| 2026-05-07 23:17 | 36.13775 | -5.07548 | 4102 ft | 212 kts | 275° |
| 2026-05-07 23:17 | 36.13972 | -5.09334 | 3770 ft | 205 kts | 275° |
| 2026-05-07 23:18 | 36.14157 | -5.11035 | 3433 ft | 195 kts | 275° |
| 2026-05-07 23:18 | 36.14277 | -5.12141 | 3197 ft | 190 kts | 276° |
| 2026-05-07 23:18 | 36.14506 | -5.14251 | 2725 ft | 184 kts | 276° |
| 2026-05-07 23:18 | 36.14619 | -5.15304 | 2492 ft | 182 kts | 276° |
| 2026-05-07 23:19 | 36.14784 | -5.16836 | 2143 ft | 182 kts | 276° |
| 2026-05-07 23:19 | 36.14955 | -5.18407 | 1817 ft | 180 kts | 276° |
| 2026-05-07 23:19 | 36.15117 | -5.19896 | 1630 ft | 171 kts | 277° |
| 2026-05-07 23:19 | 36.15270 | -5.21303 | 1431 ft | 161 kts | 277° |
| 2026-05-07 23:20 | 36.15415 | -5.22642 | 1266 ft | 153 kts | 277° |
| 2026-05-07 23:20 | 36.15501 | -5.23911 | 1076 ft | 143 kts | 266° |
| 2026-05-07 23:20 | 36.15456 | -5.25079 | 924 ft | 131 kts | 266° |
| 2026-05-07 23:20 | 36.15389 | -5.26183 | 879 ft | 127 kts | 265° |
| 2026-05-07 23:21 | 36.15319 | -5.27264 | 809 ft | 126 kts | 265° |
| 2026-05-07 23:21 | 36.15289 | -5.28347 | 744 ft | 126 kts | 267° |
| 2026-05-07 23:21 | 36.15261 | -5.29425 | 756 ft | 126 kts | 267° |
| 2026-05-07 23:21 | 36.15246 | -5.30509 | 667 ft | 126 kts | 269° |
| 2026-05-07 23:22 | 36.15209 | -5.31594 | 537 ft | 126 kts | 267° |
| 2026-05-07 23:22 | 36.15191 | -5.32678 | 368 ft | 126 kts | 269° |
| 2026-05-07 23:22 | 36.15158 | -5.33758 | 145 ft | 126 kts | 268° |
| 2026-05-07 23:22 | 36.15127 | -5.34816 | 24 ft | 112 kts | 266° |
| 2026-05-07 23:23 | 36.15106 | -5.35437 | 21 ft | 42 kts | 267° |
| 2026-05-07 23:23 | 36.15094 | -5.35745 | 19 ft | 24 kts | 268° |
| 2026-05-07 23:23 | 36.15064 | -5.35904 | 19 ft | 16 kts | 258° |
| 2026-05-07 23:23 | 36.15107 | -5.35915 | 19 ft | 11 kts | 86° |
| 2026-05-07 23:24 | 36.15097 | -5.35796 | 19 ft | 21 kts | 94° |
| 2026-05-07 23:24 | 36.15101 | -5.35608 | 21 ft | 22 kts | 87° |
| 2026-05-07 23:24 | 36.15107 | -5.35419 | 21 ft | 22 kts | 89° |
| 2026-05-07 23:24 | 36.15113 | -5.35219 | 22 ft | 26 kts | 87° |
| 2026-05-07 23:25 | 36.15124 | -5.34979 | 22 ft | 29 kts | 87° |
| 2026-05-07 23:25 | 36.15130 | -5.34746 | 20 ft | 23 kts | 88° |
| 2026-05-07 23:25 | 36.15194 | -5.34675 | 20 ft | 10 kts | 2° |
| 2026-05-07 23:25 | 36.15231 | -5.34613 | 19 ft | 11 kts | 86° |
| 2026-05-07 23:26 | 36.15232 | -5.34588 | 18 ft | 0 kts | 87° |
| 2026-05-07 23:26 | 36.15241 | -5.34577 | 17 ft | 5 kts | 28° |
| 2026-05-07 23:26 | 36.15274 | -5.34576 | 17 ft | 5 kts | 358° |
| 2026-05-07 23:26 | 36.15301 | -5.34577 | 17 ft | 3 kts | 357° |
| 2026-05-07 23:27 | 36.15310 | -5.34578 | 17 ft | 0 kts | 357° |